createdAt,value
2018-04-19T00:02:02.798Z,8.93
2018-04-19T00:04:34.379Z,8.63
2018-04-19T00:07:05.874Z,8.10
2018-04-19T00:09:36.913Z,8.50
2018-04-19T00:12:08.245Z,7.43
2018-04-19T00:14:39.581Z,8.40
2018-04-19T00:17:10.978Z,8.53
2018-04-19T00:19:42.398Z,8.40
2018-04-19T00:22:13.531Z,7.60
2018-04-19T00:24:45.027Z,7.73
2018-04-19T00:27:16.387Z,7.63
2018-04-19T00:29:48.522Z,7.93
2018-04-19T00:32:19.781Z,7.83
2018-04-19T00:34:51.106Z,8.07
2018-04-19T00:37:22.601Z,7.50
2018-04-19T00:39:54.045Z,7.00
2018-04-19T00:42:25.412Z,7.23
2018-04-19T00:44:56.941Z,7.40
2018-04-19T00:47:28.310Z,7.17
2018-04-19T00:49:59.623Z,7.17
2018-04-19T00:52:47.917Z,7.10
2018-04-19T00:55:19.270Z,7.40
2018-04-19T00:57:51.395Z,7.33
2018-04-19T01:00:23.510Z,7.63
2018-04-19T01:02:55.657Z,7.40
2018-04-19T01:05:27.159Z,6.83
2018-04-19T01:07:58.473Z,7.27
2018-04-19T01:10:30.090Z,7.60
2018-04-19T01:13:01.532Z,6.73
2018-04-19T01:15:32.995Z,6.73
2018-04-19T01:18:04.334Z,7.67
2018-04-19T01:20:35.469Z,7.43
2018-04-19T01:23:06.787Z,7.03
2018-04-19T01:25:38.936Z,6.87
2018-04-19T01:28:10.457Z,7.17
2018-04-19T01:30:42.114Z,7.27
2018-04-19T01:33:13.446Z,7.03
2018-04-19T01:36:01.637Z,7.27
2018-04-19T01:38:32.967Z,6.13
2018-04-19T01:41:05.329Z,6.80
2018-04-19T01:43:36.413Z,6.63
2018-04-19T01:46:07.958Z,6.57
2018-04-19T01:48:39.345Z,6.23
2018-04-19T01:51:10.701Z,6.30
2018-04-19T01:53:42.071Z,6.70
2018-04-19T01:56:13.546Z,7.37
2018-04-19T01:58:44.901Z,6.53
2018-04-19T02:01:16.246Z,6.33
2018-04-19T02:03:48.180Z,6.07
2018-04-19T02:06:19.566Z,6.57
2018-04-19T02:08:50.958Z,6.20
2018-04-19T02:11:22.595Z,6.83
2018-04-19T02:13:54.490Z,6.67
2018-04-19T02:16:26.577Z,6.27
2018-04-19T02:18:58.026Z,6.87
2018-04-19T02:21:29.489Z,6.60
2018-04-19T02:24:00.924Z,6.23
2018-04-19T02:26:33.007Z,6.53
2018-04-19T02:29:04.364Z,6.93
2018-04-19T02:31:35.717Z,6.47
2018-04-19T02:34:07.110Z,6.13
2018-04-19T02:36:39.234Z,6.00
2018-04-19T02:39:11.169Z,5.63
2018-04-19T02:41:47.295Z,6.10
2018-04-19T02:44:19.627Z,6.50
2018-04-19T02:46:50.983Z,6.53
2018-04-19T02:49:22.177Z,6.57
2018-04-19T02:51:53.527Z,6.07
2018-04-19T02:54:24.727Z,5.80
2018-04-19T02:56:56.063Z,5.90
2018-04-19T02:59:28.949Z,5.60
2018-04-19T03:02:01.050Z,4.83
2018-04-19T03:04:32.245Z,4.40
2018-04-19T03:07:03.888Z,5.07
2018-04-19T03:09:37.049Z,5.63
2018-04-19T03:12:08.343Z,5.30
2018-04-19T03:14:40.365Z,5.23
2018-04-19T03:17:11.551Z,6.03
2018-04-19T03:19:42.900Z,6.43
2018-04-19T03:22:14.285Z,5.73
2018-04-19T03:24:45.488Z,5.10
2018-04-19T03:27:16.438Z,5.70
2018-04-19T03:29:48.405Z,5.60
2018-04-19T03:32:20.499Z,5.60
2018-04-19T03:34:52.701Z,5.77
2018-04-19T03:37:24.055Z,5.57
2018-04-19T03:39:56.258Z,6.53
2018-04-19T03:42:27.792Z,5.97
2018-04-19T03:44:59.958Z,5.60
2018-04-19T03:47:31.156Z,6.37
2018-04-19T03:50:02.556Z,6.10
2018-04-19T03:52:34.805Z,5.73
2018-04-19T03:55:05.701Z,5.97
2018-04-19T03:57:37.034Z,6.67
2018-04-19T04:00:08.062Z,5.80
2018-04-19T04:02:39.535Z,6.70
2018-04-19T04:05:11.507Z,6.27
2018-04-19T04:07:42.971Z,5.40
2018-04-19T04:10:14.342Z,6.30
2018-04-19T04:12:46.418Z,5.83
2018-04-19T04:15:18.655Z,6.03
2018-04-19T04:18:02.651Z,5.70
2018-04-19T04:20:50.850Z,5.10
2018-04-19T04:23:41.084Z,5.40
2018-04-19T04:26:13.196Z,5.57
2018-04-19T04:28:44.534Z,5.60
2018-04-19T04:31:15.951Z,6.47
2018-04-19T04:33:47.580Z,5.63
2018-04-19T04:36:18.901Z,6.20
2018-04-19T04:38:50.037Z,5.57
2018-04-19T04:41:21.517Z,5.40
2018-04-19T04:43:53.047Z,5.50
2018-04-19T04:46:24.496Z,5.83
2018-04-19T04:48:55.906Z,5.33
2018-04-19T04:51:27.451Z,5.87
2018-04-19T04:53:58.791Z,5.40
2018-04-19T04:56:30.078Z,5.40
2018-04-19T04:59:02.220Z,5.33
2018-04-19T05:01:33.655Z,5.27
2018-04-19T05:04:05.309Z,5.00
2018-04-19T05:06:37.222Z,5.40
2018-04-19T05:09:08.415Z,5.33
2018-04-19T05:11:39.583Z,5.80
2018-04-19T05:14:12.431Z,6.10
2018-04-19T05:16:43.829Z,6.63
2018-04-19T05:19:16.016Z,5.43
2018-04-19T05:21:48.298Z,5.87
2018-04-19T05:24:19.716Z,5.53
2018-04-19T05:26:51.805Z,6.20
2018-04-19T05:29:23.169Z,5.53
2018-04-19T05:31:54.800Z,6.50
2018-04-19T05:34:26.591Z,7.03
2018-04-19T05:36:58.670Z,6.70
2018-04-19T05:39:30.033Z,6.57
2018-04-19T05:42:02.172Z,6.83
2018-04-19T05:44:33.525Z,6.70
2018-04-19T05:47:04.691Z,5.87
2018-04-19T05:49:36.412Z,5.90
2018-04-19T05:52:08.242Z,6.23
2018-04-19T05:54:40.135Z,6.97
2018-04-19T05:57:12.502Z,5.77
2018-04-19T05:59:44.927Z,6.17
2018-04-19T06:02:16.382Z,6.27
2018-04-19T06:04:47.764Z,6.57
2018-04-19T06:07:19.397Z,8.03
2018-04-19T06:09:51.659Z,7.27
2018-04-19T06:12:23.820Z,7.67
2018-04-19T06:14:55.334Z,6.77
2018-04-19T06:17:27.584Z,7.93
2018-04-19T06:19:59.127Z,7.90
2018-04-19T06:22:30.236Z,7.43
2018-04-19T06:25:01.854Z,7.87
2018-04-19T06:27:33.877Z,7.40
2018-04-19T06:30:06.762Z,6.93
2018-04-19T06:32:38.448Z,7.33
2018-04-19T06:35:10.566Z,6.83
2018-04-19T06:37:41.932Z,6.83
2018-04-19T06:40:13.406Z,6.87
2018-04-19T06:42:44.763Z,7.13
2018-04-19T06:45:16.468Z,7.17
2018-04-19T06:47:47.887Z,7.33
2018-04-19T06:50:20.010Z,6.77
2018-04-19T06:52:51.423Z,6.70
2018-04-19T06:55:22.818Z,6.47
2018-04-19T06:57:54.380Z,6.37
2018-04-19T07:00:26.554Z,6.43
2018-04-19T07:02:58.077Z,6.57
2018-04-19T07:05:29.558Z,5.70
2018-04-19T07:08:01.877Z,5.23
2018-04-19T07:10:33.226Z,4.77
2018-04-19T07:13:04.925Z,4.30
2018-04-19T07:15:36.590Z,3.83
2018-04-19T07:18:08.721Z,3.80
2018-04-19T07:20:40.058Z,3.83
2018-04-19T07:23:12.280Z,3.63
2018-04-19T07:25:43.991Z,3.50
2018-04-19T07:28:16.594Z,3.77
2018-04-19T07:30:47.918Z,3.27
2018-04-19T07:33:19.414Z,2.73
2018-04-19T07:35:50.858Z,3.27
2018-04-19T07:38:22.315Z,3.30
2018-04-19T07:40:55.172Z,2.97
2018-04-19T07:43:26.602Z,3.20
2018-04-19T07:45:58.295Z,3.23
2018-04-19T07:48:29.628Z,3.23
2018-04-19T07:51:00.757Z,3.30
2018-04-19T07:53:32.114Z,3.47
2018-04-19T07:56:03.513Z,3.50
2018-04-19T07:58:36.418Z,2.93
2018-04-19T08:01:07.758Z,3.50
2018-04-19T08:03:39.659Z,3.10
2018-04-19T08:06:11.106Z,3.20
2018-04-19T08:08:42.508Z,3.63
2018-04-19T08:11:13.958Z,3.80
2018-04-19T08:13:45.510Z,3.40
2018-04-19T08:16:17.056Z,3.40
2018-04-19T08:18:48.764Z,3.47
2018-04-19T08:21:21.199Z,3.70
2018-04-19T08:23:53.435Z,3.50
2018-04-19T08:26:24.802Z,3.03
2018-04-19T08:28:56.311Z,3.50
2018-04-19T08:31:28.508Z,3.97
2018-04-19T08:34:00.922Z,3.07
2018-04-19T08:36:32.566Z,3.20
2018-04-19T08:39:03.669Z,3.30
2018-04-19T08:41:34.812Z,3.23
2018-04-19T08:44:06.935Z,2.90
2018-04-19T08:46:37.983Z,2.90
2018-04-19T08:49:09.624Z,3.30
2018-04-19T08:51:41.204Z,3.50
2018-04-19T08:54:13.354Z,3.90
2018-04-19T08:56:44.766Z,2.77
2018-04-19T08:59:16.326Z,3.57
2018-04-19T09:01:48.748Z,3.50
2018-04-19T09:04:20.881Z,3.40
2018-04-19T09:06:52.585Z,3.70
2018-04-19T09:09:23.994Z,3.40
2018-04-19T09:11:55.521Z,3.17
2018-04-19T09:14:26.960Z,3.30
2018-04-19T09:16:59.141Z,3.37
2018-04-19T09:19:31.570Z,3.03
2018-04-19T09:22:03.127Z,2.60
2018-04-19T09:24:35.360Z,3.60
2018-04-19T09:27:06.799Z,2.90
2018-04-19T09:29:37.917Z,2.53
2018-04-19T09:32:10.062Z,3.30
2018-04-19T09:34:42.266Z,2.30
2018-04-19T09:39:51.466Z,2.17
2018-04-19T09:42:22.870Z,2.87
2018-04-19T09:44:54.331Z,2.77
2018-04-19T09:47:25.950Z,2.33
2018-04-19T09:49:57.379Z,2.10
2018-04-19T09:52:30.038Z,2.47
2018-04-19T09:55:01.456Z,2.10
2018-04-19T09:57:32.954Z,2.27
2018-04-19T10:00:04.004Z,2.47
2018-04-19T10:02:35.383Z,2.10
2018-04-19T10:05:06.517Z,2.30
2018-04-19T10:07:38.694Z,2.40
2018-04-19T10:10:10.453Z,2.50
2018-04-19T10:12:41.837Z,2.23
2018-04-19T10:15:13.952Z,2.23
2018-04-19T10:17:46.918Z,2.10
2018-04-19T10:20:19.621Z,2.70
2018-04-19T10:22:52.281Z,2.20
2018-04-19T10:25:25.198Z,2.10
2018-04-19T10:27:57.213Z,1.85
2018-04-19T10:30:29.221Z,2.35
2018-04-19T10:33:01.904Z,3.08
2018-04-19T10:35:34.554Z,2.28
2018-04-19T10:38:06.648Z,3.28
2018-04-19T10:40:38.339Z,2.65
2018-04-19T10:43:10.769Z,2.10
2018-04-19T10:45:43.082Z,2.17
2018-04-19T10:48:15.775Z,1.92
2018-04-19T10:50:47.674Z,2.20
2018-04-19T10:53:20.450Z,1.65
2018-04-19T10:55:52.603Z,2.05
2018-04-19T10:58:24.566Z,1.98
2018-04-19T11:00:56.535Z,2.40
2018-04-19T11:03:28.896Z,2.40
2018-04-19T11:06:00.771Z,2.35
2018-04-19T11:08:32.912Z,2.30
2018-04-19T11:11:05.411Z,1.87
2018-04-19T11:13:37.479Z,2.25
2018-04-19T11:16:10.283Z,2.40
2018-04-19T11:18:43.164Z,2.12
2018-04-19T11:21:16.003Z,1.90
2018-04-19T11:23:47.929Z,1.87
2018-04-19T11:26:20.611Z,1.87
2018-04-19T11:28:53.457Z,1.85
2018-04-19T11:31:25.475Z,1.48
2018-04-19T11:33:58.197Z,1.73
2018-04-19T11:36:30.185Z,1.90
2018-04-19T11:39:02.448Z,1.70
2018-04-19T11:41:34.827Z,2.15
2018-04-19T11:44:06.851Z,1.70
2018-04-19T11:46:38.537Z,1.60
2018-04-19T11:49:10.444Z,1.60
2018-04-19T11:51:42.703Z,1.80
2018-04-19T11:54:15.350Z,1.70
2018-04-19T11:56:47.058Z,1.80
2018-04-19T11:59:19.005Z,2.20
2018-04-19T12:01:51.203Z,2.35
2018-04-19T12:04:23.833Z,1.92
2018-04-19T12:06:58.206Z,1.70
2018-04-19T12:09:30.085Z,1.90
2018-04-19T12:12:01.743Z,2.00
2018-04-19T12:14:34.191Z,2.50
2018-04-19T12:17:05.811Z,1.70
2018-04-19T12:19:38.073Z,1.87
2018-04-19T12:22:10.470Z,1.80
2018-04-19T12:24:42.170Z,1.77
2018-04-19T12:27:13.866Z,1.83
2018-04-19T12:29:46.338Z,1.63
2018-04-19T12:32:18.548Z,1.70
2018-04-19T12:34:49.918Z,1.80
2018-04-19T12:37:21.543Z,1.60
2018-04-19T12:39:53.441Z,1.57
2018-04-19T12:42:24.747Z,1.30
2018-04-19T12:44:56.580Z,1.50
2018-04-19T12:47:28.472Z,2.23
2018-04-19T12:49:59.943Z,1.30
2018-04-19T12:52:31.593Z,1.40
2018-04-19T12:55:04.219Z,1.33
2018-04-19T12:57:36.137Z,1.33
2018-04-19T13:00:07.750Z,1.40
2018-04-19T13:02:39.735Z,1.20
2018-04-19T13:05:12.125Z,1.37
2018-04-19T13:07:43.758Z,1.30
2018-04-19T13:10:19.048Z,2.27
2018-04-19T13:12:50.721Z,1.90
2018-04-19T13:15:22.644Z,1.30
2018-04-19T13:17:54.315Z,1.70
2018-04-19T13:20:26.686Z,1.40
2018-04-19T13:22:59.029Z,1.70
2018-04-19T13:25:30.928Z,1.58
2018-04-19T13:28:03.641Z,1.35
2018-04-19T13:30:35.571Z,1.67
2018-04-19T13:33:07.676Z,1.80
2018-04-19T13:35:39.730Z,1.55
2018-04-19T13:38:11.868Z,1.80
2018-04-19T13:40:43.846Z,1.65
2018-04-19T13:43:16.652Z,5.40
2018-04-19T13:45:48.661Z,2.00
2018-04-19T13:48:21.496Z,1.80
2018-04-19T13:50:53.559Z,1.65
2018-04-19T13:53:25.454Z,1.55
2018-04-19T13:55:58.158Z,1.40
2018-04-19T13:58:31.009Z,1.65
2018-04-19T14:01:02.722Z,1.42
2018-04-19T14:03:37.211Z,1.55
2018-04-19T14:06:09.885Z,1.60
2018-04-19T14:08:41.856Z,1.65
2018-04-19T14:11:13.750Z,1.75
2018-04-19T14:13:45.755Z,1.73
2018-04-19T14:16:17.685Z,1.67
2018-04-19T14:18:49.604Z,2.10
2018-04-19T14:21:21.806Z,1.80
2018-04-19T14:23:54.722Z,2.00
2018-04-19T14:26:26.641Z,1.87
2018-04-19T14:28:58.646Z,2.33
2018-04-19T14:31:30.650Z,1.92
2018-04-19T14:34:03.741Z,1.65
2018-04-19T14:36:36.554Z,1.92
2018-04-19T14:39:09.310Z,2.05
2018-04-19T14:41:41.139Z,1.90
2018-04-19T14:44:13.021Z,1.73
2018-04-19T14:46:44.877Z,1.75
2018-04-19T14:49:16.820Z,1.77
2018-04-19T14:51:49.696Z,1.60
2018-04-19T14:54:22.570Z,1.90
2018-04-19T14:56:54.548Z,1.98
2018-04-19T14:59:26.560Z,1.90
2018-04-19T15:01:58.580Z,1.52
2018-04-19T15:04:30.579Z,1.90
2018-04-19T15:07:02.707Z,2.00
2018-04-19T15:09:34.434Z,1.75
2018-04-19T15:12:11.174Z,2.45
2018-04-19T15:14:43.216Z,3.05
2018-04-19T15:17:15.141Z,1.87
2018-04-19T15:19:47.983Z,1.40
2018-04-19T15:22:20.184Z,1.60
2018-04-19T15:24:52.270Z,1.85
2018-04-19T15:27:24.116Z,1.70
2018-04-19T15:29:56.794Z,1.87
2018-04-19T15:35:06.525Z,1.50
2018-04-19T15:37:38.385Z,1.50
2018-04-19T15:40:10.358Z,1.70
2018-04-19T15:42:42.489Z,1.30
2018-04-19T15:45:14.854Z,1.55
2018-04-19T15:47:47.057Z,2.25
2018-04-19T15:50:19.023Z,1.70
2018-04-19T15:52:51.195Z,1.60
2018-04-19T15:55:23.360Z,1.37
2018-04-19T15:57:55.312Z,1.48
2018-04-19T16:00:27.665Z,1.45
2018-04-19T16:03:00.624Z,1.65
2018-04-19T16:05:32.961Z,1.55
2018-04-19T16:08:05.742Z,1.50
2018-04-19T16:10:38.202Z,1.75
2018-04-19T16:13:10.170Z,1.60
2018-04-19T16:15:42.541Z,1.30
2018-04-19T16:18:14.532Z,1.50
2018-04-19T16:20:45.962Z,1.63
2018-04-19T16:23:17.391Z,2.10
2018-04-19T16:25:49.339Z,1.48
2018-04-19T16:28:20.850Z,1.57
2018-04-19T16:30:52.291Z,1.53
2018-04-19T16:33:23.646Z,1.57
2018-04-19T16:35:55.091Z,1.30
2018-04-19T16:38:27.352Z,1.60
2018-04-19T16:40:59.598Z,1.47
2018-04-19T16:43:31.090Z,1.77
2018-04-19T16:46:03.236Z,1.90
2018-04-19T16:48:34.716Z,1.57
2018-04-19T16:51:05.999Z,1.67
2018-04-19T16:53:37.419Z,1.80
2018-04-19T16:56:08.863Z,1.70
2018-04-19T16:58:40.384Z,1.83
2018-04-19T17:01:11.792Z,1.80
2018-04-19T17:03:43.082Z,1.60
2018-04-19T17:06:18.293Z,1.87
2018-04-19T17:08:49.625Z,1.60
2018-04-19T17:11:21.159Z,1.80
2018-04-19T17:13:53.643Z,1.77
2018-04-19T17:16:25.046Z,1.73
2018-04-19T17:18:56.445Z,1.60
2018-04-19T17:21:28.646Z,1.77
2018-04-19T17:23:59.785Z,2.13
2018-04-19T17:26:31.287Z,1.60
2018-04-19T17:29:03.233Z,1.67
2018-04-19T17:31:34.622Z,1.70
2018-04-19T17:34:06.058Z,1.70
2018-04-19T17:36:38.515Z,1.90
2018-04-19T17:39:10.674Z,1.63
2018-04-19T17:41:42.851Z,2.00
2018-04-19T17:44:15.087Z,1.67
2018-04-19T17:46:46.493Z,1.73
2018-04-19T17:49:18.733Z,1.80
2018-04-19T17:51:50.166Z,2.07
2018-04-19T17:54:21.518Z,1.70
2018-04-19T17:56:52.903Z,1.80
2018-04-19T17:59:24.350Z,1.97
2018-04-19T18:01:55.861Z,1.70
2018-04-19T18:04:27.489Z,1.77
2018-04-19T18:06:59.631Z,1.80
2018-04-19T18:09:31.037Z,1.60
2018-04-19T18:12:02.490Z,1.90
2018-04-19T18:14:34.986Z,1.70
2018-04-19T18:17:06.389Z,1.70
2018-04-19T18:19:38.495Z,1.87
2018-04-19T18:22:09.919Z,1.53
2018-04-19T18:24:42.199Z,2.10
2018-04-19T18:27:13.841Z,2.20
2018-04-19T18:29:45.228Z,2.20
2018-04-19T18:32:16.759Z,1.80
2018-04-19T18:34:48.165Z,2.17
2018-04-19T18:37:19.414Z,1.90
2018-04-19T18:42:29.753Z,2.43
2018-04-19T18:45:00.891Z,1.90
2018-04-19T18:47:32.257Z,2.27
2018-04-19T18:50:03.650Z,2.70
2018-04-19T18:52:35.778Z,2.50
2018-04-19T18:55:07.181Z,2.57
2018-04-19T18:57:40.582Z,2.93
2018-04-19T19:00:12.733Z,3.33
2018-04-19T19:02:45.320Z,3.57
2018-04-19T19:05:16.917Z,2.80
2018-04-19T19:07:48.355Z,3.03
2018-04-19T19:10:19.795Z,3.27
2018-04-19T19:12:51.419Z,3.23
2018-04-19T20:01:52.454Z,2.40
2018-04-19T20:04:24.168Z,3.20
2018-04-19T20:06:55.583Z,3.83
2018-04-19T20:09:27.178Z,3.33
2018-04-19T20:11:58.556Z,3.40
2018-04-19T20:14:29.932Z,3.10
2018-04-19T20:17:01.318Z,3.60
2018-04-19T20:19:32.442Z,3.00
2018-04-19T20:22:04.303Z,2.97
2018-04-19T20:24:35.730Z,2.90
2018-04-19T20:27:06.766Z,2.70
2018-04-19T20:29:38.102Z,2.83
2018-04-19T20:32:09.473Z,2.67
2018-04-19T20:34:40.859Z,2.20
2018-04-19T20:37:12.351Z,2.57
2018-04-19T20:39:43.419Z,2.30
2018-04-19T20:42:15.630Z,2.53
2018-04-19T20:44:47.018Z,2.30
2018-04-19T20:47:18.437Z,2.67
2018-04-19T20:49:50.353Z,2.40
2018-04-19T20:52:22.202Z,2.37
2018-04-19T20:54:53.859Z,2.50
2018-04-19T20:57:26.047Z,2.43
2018-04-19T20:59:57.434Z,2.37
2018-04-19T21:02:28.795Z,2.67
2018-04-19T21:05:00.233Z,2.70
2018-04-19T21:07:32.675Z,2.63
2018-04-19T21:10:04.127Z,2.53
2018-04-19T21:12:35.318Z,2.80
2018-04-19T21:15:06.734Z,2.30
2018-04-19T21:17:37.782Z,2.97
2018-04-19T21:20:09.943Z,2.40
2018-04-19T21:22:41.878Z,2.50
2018-04-19T21:25:13.260Z,2.57
2018-04-19T21:27:44.629Z,2.57
2018-04-19T21:30:16.121Z,2.70
2018-04-19T21:32:47.482Z,2.80
2018-04-19T21:35:18.872Z,2.30
2018-04-19T21:37:50.500Z,2.80
2018-04-19T21:40:21.917Z,2.43
2018-04-19T21:42:53.278Z,2.70
2018-04-19T21:45:24.670Z,2.50
2018-04-19T21:47:55.994Z,2.13
2018-04-19T21:50:27.378Z,2.03
2018-04-19T21:52:58.768Z,2.00
2018-04-19T21:55:30.100Z,2.20
2018-04-19T21:58:01.645Z,2.33
2018-04-19T22:00:33.133Z,2.37
2018-04-19T22:03:04.622Z,2.37
2018-04-19T22:05:36.801Z,2.50
2018-04-19T22:08:08.919Z,2.40
2018-04-19T22:10:40.470Z,1.90
2018-04-19T22:13:11.814Z,2.30
2018-04-19T22:15:43.300Z,2.10
2018-04-19T22:18:15.478Z,2.50
2018-04-19T22:20:46.874Z,2.53
2018-04-19T22:23:18.287Z,2.37
2018-04-19T22:25:49.696Z,2.30
2018-04-19T22:28:21.064Z,2.67
2018-04-19T22:30:53.958Z,2.43
2018-04-19T22:33:26.146Z,2.00
2018-04-19T22:35:57.354Z,2.27
2018-04-19T22:38:28.733Z,2.30
2018-04-19T22:41:03.396Z,2.43
2018-04-19T22:43:35.495Z,2.10
2018-04-19T22:46:06.846Z,2.10
2018-04-19T22:48:38.175Z,2.00
2018-04-19T22:51:09.576Z,2.10
2018-04-19T22:53:40.939Z,2.47
2018-04-19T22:56:13.986Z,2.20
2018-04-19T22:58:45.292Z,1.93
2018-04-19T23:01:17.755Z,2.40
2018-04-19T23:03:49.408Z,2.17
2018-04-19T23:06:21.053Z,2.40
2018-04-19T23:08:52.428Z,2.30
2018-04-19T23:11:23.812Z,2.37
2018-04-19T23:13:55.145Z,2.10
2018-04-19T23:16:26.533Z,2.23
2018-04-19T23:18:57.866Z,2.70
2018-04-19T23:21:29.241Z,2.27
2018-04-19T23:24:00.873Z,2.20
2018-04-19T23:26:32.217Z,2.43
2018-04-19T23:29:03.573Z,2.20
2018-04-19T23:31:34.889Z,2.13
2018-04-19T23:34:07.914Z,2.43
2018-04-19T23:36:39.228Z,2.30
2018-04-19T23:39:10.580Z,2.17
2018-04-19T23:41:42.076Z,2.37
2018-04-19T23:44:13.424Z,2.47
2018-04-19T23:46:44.808Z,2.20
2018-04-19T23:49:16.953Z,2.23
2018-04-19T23:51:48.508Z,2.50
2018-04-19T23:54:19.822Z,2.47
2018-04-19T23:59:27.628Z,2.43
